FW7711 Weather Reports


Display with metric or nautical units.
time (UTC)temp
F
wind
direction
speed
MPH
gust
MPH
rain 1hr
in
rain 24hr
in
rain mn
in
humidity
%
barometer
mb
20240616100100 64 0.0 0.0 0.00 1.59 0.65 97 1004.7
20240616094605 64 0.0 0.0 0.00 1.59 0.65 97 1005.0
20240616093100 64 0.0 0.0 0.00 1.59 0.65 97 1004.6
20240616091600 64 0.0 0.0 0.02 1.59 0.65 97 1004.9
20240616090059 64 0.0 0.0 0.06 1.59 0.65 97 1005.1
20240616084559 64 0.0 0.0 0.11 1.59 0.65 97 1005.3
20240616083057 64 0.0 0.0 0.17 1.59 0.65 97 1005.1
20240616081558 64 0.0 0.0 0.17 1.57 0.63 97 1005.5
20240616080059 64 0.0 0.0 0.14 1.53 0.58 97 1006.0
20240616074603 64 0.0 0.0 0.11 1.48 0.54 97 1005.9
20240616073058 64 0.0 0.0 0.06 1.42 0.48 97 1006.2
20240616071601 64 0.0 0.0 0.08 1.40 0.46 97 1006.4
20240616070109 64 0.0 0.0 0.12 1.39 0.45 97 1007.6
20240616064559 63 0.0 0.0 0.28 1.37 0.43 96 1007.1
20240616063100 63 0.0 0.0 0.33 1.36 0.42 96 1007.0
20240616061605 63 0.0 0.0 0.33 1.32 0.38 96 1007.4
20240616060058 64 0.0 0.0 0.32 1.26 0.32 96 1007.9
20240616054607 64 0.0 0.0 0.19 1.09 0.15 96 1007.9
20240616053058 64 0.0 0.0 0.16 1.03 0.09 96 1007.8
20240616051600 63 0.0 0.0 0.19 0.99 0.05 96 1007.9
20240616050105 63 0.0 0.0 0.19 0.94 0.00 96 1008.0
20240616044600 63 0.0 0.0 0.16 0.90 0.90 96 1008.1
20240616043104 63 0.0 0.0 0.13 0.87 0.87 95 1008.2
20240616041602 63 0.0 0.0 0.06 0.80 0.80 95 1008.8
20240616040116 63 0.0 0.0 0.01 0.75 0.75 95 1008.3
20240616034559 63 0.0 0.0 0.00 0.74 0.74 95 1008.2
20240616033116 63 0.0 0.0 0.00 0.74 0.74 96 1008.3
20240616031604 63 0.0 0.0 0.00 0.74 0.74 96 1008.4
20240616030055 63 0.0 0.0 0.00 0.74 0.74 96 1008.5
20240616024605 62 0.0 0.0 0.00 0.74 0.74 96 1008.7
20240616023104 62 0.0 0.0 0.00 0.74 0.74 96 1008.6
20240616021607 62 0.0 0.0 0.00 0.74 0.74 96 1008.8
20240616020104 62 0.0 0.0 0.00 0.74 0.74 96 1008.7
20240616014558 62 0.0 0.0 0.00 0.74 0.74 96 1008.5
20240616013109 62 0.0 0.0 0.00 0.74 0.74 96 1008.7
20240616011555 62 0.0 0.0 0.01 0.74 0.74 96 1008.8
20240616010111 62 0.0 0.0 0.03 0.74 0.74 96 1009.1
20240616004557 63 0.0 0.0 0.03 0.74 0.74 96 1009.5
20240616003059 63 0.0 0.0 0.06 0.74 0.74 96 1009.6
20240616001600 63 0.0 0.0 0.07 0.73 0.73 96 1010.0
20240616000102 63 0.0 0.0 0.09 0.71 0.71 96 1010.5
20240615234557 63 0.0 0.0 0.10 0.71 0.71 96 1010.4
20240615233057 63 0.0 0.0 0.23 0.68 0.68 96 1010.7
20240615231556 63 0.0 0.0 0.28 0.66 0.66 96 1011.0
20240615230100 63 0.0 0.0 0.25 0.62 0.62 96 1011.1
20240615224559 63 0.0 0.0 0.25 0.61 0.61 96 1011.3
20240615223059 63 0.0 0.0 0.11 0.45 0.45 96 1011.4
20240615221609 63 0.0 0.0 0.08 0.38 0.38 95 1011.7
20240615220109 63 0.0 0.0 0.11 0.37 0.37 95 1012.0
20240615214556 62 0.0 0.0 0.16 0.36 0.36 95 1012.0
20240615213056 62 0.0 0.0 0.18 0.34 0.34 94 1012.4
20240615211559 62 0.0 0.0 0.15 0.30 0.30 94 1012.6
20240615210059 63 0.0 0.0 0.12 0.26 0.26 94 1012.3
20240615204556 63 0.0 0.0 0.08 0.20 0.20 94 1012.8
20240615203058 63 0.0 0.0 0.05 0.16 0.16 94 1012.7
20240615201612 63 0.0 0.0 0.04 0.15 0.15 94 1012.9
20240615200058 63 0.0 0.0 0.07 0.14 0.14 93 1013.0
20240615194603 63 0.0 0.0 0.09 0.12 0.12 93 1013.1
20240615193100 63 0.0 0.0 0.09 0.11 0.11 92 1013.5
20240615191605 64 0.0 0.0 0.09 0.11 0.11 90 1013.8
20240615190059 65 0.0 0.0 0.05 0.07 0.07 87 1014.0
20240615184603 66 0.0 0.0 0.01 0.03 0.03 84 1014.1
20240615183108 67 0.0 0.0 0.00 0.02 0.02 81 1014.1
20240615181556 67 0.0 0.0 0.00 0.02 0.02 81 1014.1
20240615180101 67 0.0 0.0 0.00 0.02 0.02 81 1014.1
20240615174558 67 0.0 0.0 0.00 0.02 0.02 82 1014.2
20240615173113 66 0.0 0.0 0.00 0.02 0.02 83 1014.2
20240615171555 66 0.0 0.0 0.00 0.02 0.02 85 1014.3
20240615170109 66 0.0 0.0 0.00 0.02 0.02 85 1014.0
20240615164637 66 0.0 0.0 0.01 0.02 0.02 86 1014.0
20240615163058 66 0.0 0.0 0.02 0.02 0.02 87 1014.2
20240615161557 66 0.0 0.0 0.02 0.02 0.02 87 1014.4
20240615160108 66 0.0 0.0 0.02 0.02 0.02 85 1014.7
20240615154559 67 0.0 0.0 0.01 0.01 0.01 82 1014.9
20240615153058 67 0.0 0.0 0.00 0.00 0.00 79 1015.4
20240615151557 68 0.0 0.0 0.00 0.00 0.00 75 1015.5
20240615150058 69 0.0 0.0 0.00 0.00 0.00 73 1015.9
20240615144621 69 0.0 0.0 0.00 0.00 0.00 71 1016.1
20240615143115 69 0.0 0.0 0.00 0.00 0.00 71 1016.2
20240615141556 69 0.0 0.0 0.00 0.00 0.00 71 1016.4
20240615140057 68 0.0 0.0 0.00 0.00 0.00 71 1016.4
20240615134558 68 0.0 0.0 0.00 0.00 0.00 71 1016.7
20240615133104 67 0.0 0.0 0.00 0.00 0.00 72 1017.1
20240615131559 67 0.0 0.0 0.00 0.00 0.00 71 1017.0
20240615130105 68 0.0 0.0 0.00 0.00 0.00 69 1016.2
20240615124556 68 0.0 0.0 0.00 0.00 0.00 70 1016.3
20240615123101 67 0.0 0.0 0.00 0.00 0.00 70 1016.7
20240615121557 67 0.0 0.0 0.00 0.00 0.00 69 1017.1
20240615120055 67 0.0 0.0 0.00 0.00 0.00 68 1017.1
20240615114557 67 0.0 0.0 0.00 0.00 0.00 67 1017.0
20240615113057 67 0.0 0.0 0.00 0.00 0.00 67 1017.4
20240615111604 67 0.0 0.0 0.00 0.00 0.00 66 1016.7
20240615110057 67 0.0 0.0 0.00 0.00 0.00 66 1016.6
20240615104604 68 0.0 0.0 0.00 0.00 0.00 67 1016.7
20240615103058 68 0.0 0.0 0.00 0.00 0.00 65 1017.0
20240615101607 68 0.0 0.0 0.00 0.00 0.00 64 1016.9